createdAt,value
2018-09-03T00:01:03.071Z,71.51
2018-09-03T00:03:31.627Z,71.39
2018-09-03T00:06:00.215Z,71.51
2018-09-03T00:08:28.811Z,71.51
2018-09-03T00:10:57.829Z,71.11
2018-09-03T00:13:26.451Z,71.89
2018-09-03T00:15:55.243Z,72.00
2018-09-03T00:18:23.864Z,72.08
2018-09-03T00:20:52.440Z,71.94
2018-09-03T00:23:21.461Z,72.13
2018-09-03T00:25:50.043Z,72.18
2018-09-03T00:28:18.647Z,72.00
2018-09-03T00:30:47.444Z,72.21
2018-09-03T00:33:21.044Z,72.52
2018-09-03T00:35:54.856Z,72.41
2018-09-03T00:38:28.519Z,72.70
2018-09-03T00:41:02.263Z,72.39
2018-09-03T00:43:36.027Z,72.54
2018-09-03T00:46:09.759Z,71.79
2018-09-03T00:48:38.387Z,71.65
2018-09-03T00:51:06.979Z,71.98
2018-09-03T00:53:35.636Z,72.03
2018-09-03T00:56:04.227Z,71.48
2018-09-03T00:58:32.790Z,71.56
2018-09-03T01:01:01.653Z,71.40
2018-09-03T01:03:30.217Z,71.72
2018-09-03T01:05:58.787Z,71.72
2018-09-03T01:08:27.476Z,71.78
2018-09-03T01:10:56.028Z,71.16
2018-09-03T01:13:24.616Z,71.94
2018-09-03T01:15:53.566Z,72.09
2018-09-03T01:18:22.161Z,71.57
2018-09-03T01:20:50.737Z,72.04
2018-09-03T01:23:19.428Z,71.90
2018-09-03T01:25:48.069Z,72.07
2018-09-03T01:28:16.644Z,71.84
2018-09-03T01:30:45.308Z,71.77
2018-09-03T01:33:13.882Z,71.89
2018-09-03T01:35:42.488Z,71.42
2018-09-03T01:38:11.207Z,71.37
2018-09-03T01:40:39.774Z,71.56
2018-09-03T01:43:08.368Z,71.54
2018-09-03T01:45:37.283Z,71.62
2018-09-03T01:48:05.923Z,71.64
2018-09-03T01:50:34.473Z,71.82
2018-09-03T01:53:03.048Z,71.51
2018-09-03T01:55:31.603Z,71.61
2018-09-03T01:58:00.167Z,71.62
2018-09-03T02:00:28.777Z,71.31
2018-09-03T02:02:57.356Z,71.79
2018-09-03T02:05:25.921Z,71.40
2018-09-03T02:07:54.659Z,71.56
2018-09-03T02:10:23.208Z,71.35
2018-09-03T02:12:51.764Z,71.25
2018-09-03T02:15:20.661Z,71.48
2018-09-03T02:17:49.220Z,71.24
2018-09-03T02:20:17.780Z,71.45
2018-09-03T02:22:46.664Z,71.56
2018-09-03T02:25:15.227Z,71.42
2018-09-03T02:27:43.807Z,71.37
2018-09-03T02:30:12.397Z,70.80
2018-09-03T02:32:41.584Z,71.17
2018-09-03T02:35:10.158Z,70.77
2018-09-03T02:37:38.828Z,70.94
2018-09-03T02:40:07.681Z,70.46
2018-09-03T02:42:36.310Z,70.36
2018-09-03T02:45:05.340Z,70.35
2018-09-03T02:47:33.926Z,70.31
2018-09-03T02:50:02.500Z,70.26
2018-09-03T02:52:31.187Z,70.96
2018-09-03T02:54:59.735Z,71.24
2018-09-03T02:57:28.336Z,71.52
2018-09-03T02:59:57.136Z,71.23
2018-09-03T03:02:26.072Z,71.23
2018-09-03T03:04:54.655Z,71.21
2018-09-03T03:07:23.555Z,70.77
2018-09-03T03:09:52.131Z,71.10
2018-09-03T03:12:22.607Z,70.99
2018-09-03T03:14:52.351Z,71.03
2018-09-03T03:17:21.461Z,70.66
2018-09-03T03:19:50.220Z,71.00
2018-09-03T03:22:18.951Z,71.09
2018-09-03T03:24:47.639Z,70.66
2018-09-03T03:27:16.730Z,70.86
2018-09-03T03:29:46.000Z,70.73
2018-09-03T03:32:14.759Z,70.28
2018-09-03T03:34:43.335Z,70.76
2018-09-03T03:37:11.907Z,70.40
2018-09-03T03:39:40.521Z,70.75
2018-09-03T03:42:09.080Z,70.55
2018-09-03T03:44:37.679Z,70.32
2018-09-03T03:47:06.316Z,70.42
2018-09-03T03:49:34.899Z,70.29
2018-09-03T03:52:03.579Z,70.53
2018-09-03T03:54:32.293Z,70.70
2018-09-03T03:57:00.871Z,70.33
2018-09-03T03:59:29.450Z,70.32
2018-09-03T04:01:58.194Z,70.08
2018-09-03T04:04:26.771Z,70.11
2018-09-03T04:06:55.350Z,70.59
2018-09-03T04:09:24.076Z,70.55
2018-09-03T04:11:52.663Z,70.25
2018-09-03T04:14:21.208Z,70.78
2018-09-03T04:16:49.903Z,70.81
2018-09-03T04:19:18.483Z,70.31
2018-09-03T04:21:47.056Z,70.45
2018-09-03T04:24:15.995Z,70.68
2018-09-03T04:26:44.560Z,70.27
2018-09-03T04:29:13.129Z,70.42
2018-09-03T04:31:42.028Z,70.71
2018-09-03T04:34:10.675Z,70.73
2018-09-03T04:36:39.227Z,70.56
2018-09-03T04:39:09.824Z,70.83
2018-09-03T04:41:38.711Z,70.61
2018-09-03T04:44:07.339Z,70.18
2018-09-03T04:46:35.933Z,70.26
2018-09-03T04:49:04.515Z,70.22
2018-09-03T04:51:33.135Z,70.37
2018-09-03T04:54:02.077Z,70.15
2018-09-03T04:56:30.633Z,70.12
2018-09-03T04:58:59.187Z,69.72
2018-09-03T05:01:27.852Z,69.53
2018-09-03T05:03:56.415Z,69.65
2018-09-03T05:06:24.967Z,69.87
2018-09-03T05:08:53.593Z,69.96
2018-09-03T05:11:22.147Z,70.08
2018-09-03T05:13:50.788Z,69.68
2018-09-03T05:16:19.492Z,69.90
2018-09-03T05:18:48.051Z,69.93
2018-09-03T05:21:16.642Z,69.40
2018-09-03T05:23:45.269Z,69.47
2018-09-03T05:26:13.895Z,69.44
2018-09-03T05:28:42.431Z,69.27
2018-09-03T05:31:11.183Z,69.37
2018-09-03T05:33:39.771Z,69.55
2018-09-03T05:36:08.492Z,69.29
2018-09-03T05:38:37.144Z,68.71
2018-09-03T05:41:05.797Z,68.84
2018-09-03T05:43:34.597Z,68.91
2018-09-03T05:46:03.512Z,68.84
2018-09-03T05:48:32.076Z,68.57
2018-09-03T05:51:00.679Z,68.12
2018-09-03T05:53:29.375Z,67.68
2018-09-03T05:55:58.011Z,67.98
2018-09-03T05:58:26.603Z,68.20
2018-09-03T06:00:55.261Z,68.29
2018-09-03T06:03:23.973Z,68.47
2018-09-03T06:05:52.555Z,67.87
2018-09-03T06:08:21.206Z,68.00
2018-09-03T06:10:49.764Z,67.77
2018-09-03T06:13:18.337Z,67.42
2018-09-03T06:15:47.400Z,67.60
2018-09-03T06:18:15.956Z,67.38
2018-09-03T06:20:45.056Z,67.36
2018-09-03T06:23:13.748Z,66.96
2018-09-03T06:25:42.321Z,67.36
2018-09-03T06:28:10.875Z,67.25
2018-09-03T06:30:39.465Z,67.06
2018-09-03T06:33:08.035Z,67.18
2018-09-03T06:35:36.587Z,67.22
2018-09-03T06:38:05.287Z,66.89
2018-09-03T06:40:33.869Z,66.55
2018-09-03T06:43:02.420Z,66.84
2018-09-03T06:45:31.328Z,66.71
2018-09-03T06:47:59.891Z,66.61
2018-09-03T06:50:28.440Z,66.65
2018-09-03T06:52:57.393Z,66.91
2018-09-03T06:55:25.967Z,66.97
2018-09-03T06:57:54.536Z,67.23
2018-09-03T07:00:24.088Z,67.28
2018-09-03T07:02:55.590Z,67.64
2018-09-03T07:05:25.604Z,67.12
2018-09-03T07:07:54.155Z,67.26
2018-09-03T07:10:25.258Z,67.42
2018-09-03T07:12:54.026Z,66.88
2018-09-03T07:15:22.887Z,67.10
2018-09-03T07:17:54.483Z,67.19
2018-09-03T07:20:25.558Z,67.45
2018-09-03T07:22:54.203Z,67.51
2018-09-03T07:25:22.796Z,66.90
2018-09-03T07:27:51.335Z,67.54
2018-09-03T07:30:19.908Z,67.13
2018-09-03T07:32:48.464Z,67.43
2018-09-03T07:35:17.074Z,67.14
2018-09-03T07:37:45.741Z,67.33
2018-09-03T07:40:14.319Z,67.00
2018-09-03T07:42:42.887Z,67.46
2018-09-03T07:45:11.476Z,67.47
2018-09-03T07:47:40.091Z,66.97
2018-09-03T07:50:08.647Z,66.88
2018-09-03T07:52:37.351Z,67.16
2018-09-03T07:55:05.912Z,67.32
2018-09-03T07:57:34.463Z,66.72
2018-09-03T08:00:03.134Z,66.92
2018-09-03T08:02:31.695Z,66.90
2018-09-03T08:05:00.251Z,67.54
2018-09-03T08:07:28.934Z,67.03
2018-09-03T08:09:57.471Z,67.24
2018-09-03T08:12:26.028Z,66.67
2018-09-03T08:14:54.696Z,66.33
2018-09-03T08:17:23.332Z,66.32
2018-09-03T08:19:51.905Z,66.50
2018-09-03T08:22:20.583Z,66.40
2018-09-03T08:24:49.140Z,66.63
2018-09-03T08:27:17.708Z,66.04
2018-09-03T08:29:46.771Z,65.72
2018-09-03T08:32:15.332Z,65.52
2018-09-03T08:34:43.891Z,65.72
2018-09-03T08:37:12.875Z,65.12
2018-09-03T08:39:41.427Z,65.04
2018-09-03T08:42:10.170Z,65.69
2018-09-03T08:44:38.787Z,65.35
2018-09-03T08:47:07.404Z,66.09
2018-09-03T08:49:35.944Z,66.36
2018-09-03T08:52:04.544Z,67.03
2018-09-03T08:54:33.121Z,66.36
2018-09-03T08:57:01.695Z,67.23
2018-09-03T08:59:30.539Z,67.46
2018-09-03T09:01:59.100Z,67.27
2018-09-03T09:04:27.652Z,66.97
2018-09-03T09:06:56.284Z,67.38
2018-09-03T09:09:24.832Z,67.23
2018-09-03T09:11:53.384Z,67.54
2018-09-03T09:14:21.951Z,67.41
2018-09-03T09:16:50.495Z,67.47
2018-09-03T09:19:19.080Z,67.44
2018-09-03T09:21:47.760Z,67.23
2018-09-03T09:24:16.301Z,66.80
2018-09-03T09:26:44.844Z,66.34
2018-09-03T09:29:13.531Z,66.77
2018-09-03T09:31:42.076Z,66.33
2018-09-03T09:34:10.636Z,66.39
2018-09-03T09:36:39.444Z,66.10
2018-09-03T09:39:09.201Z,66.60
2018-09-03T09:41:37.762Z,66.59
2018-09-03T09:44:06.963Z,66.03
2018-09-03T09:46:35.521Z,66.50
2018-09-03T09:49:04.071Z,66.70
2018-09-03T09:51:32.729Z,66.66
2018-09-03T09:54:01.295Z,66.30
2018-09-03T09:56:29.844Z,66.52
2018-09-03T09:58:58.508Z,66.57
2018-09-03T10:01:32.271Z,65.71
2018-09-03T10:04:00.918Z,65.96
2018-09-03T10:06:29.467Z,65.72
2018-09-03T10:08:58.393Z,65.44
2018-09-03T10:11:27.819Z,65.32
2018-09-03T10:13:56.375Z,64.71
2018-09-03T10:16:24.951Z,64.90
2018-09-03T10:18:53.627Z,64.07
2018-09-03T10:21:22.172Z,63.55
2018-09-03T10:23:50.724Z,62.95
2018-09-03T10:26:19.766Z,62.02
2018-09-03T10:28:48.336Z,61.67
2018-09-03T10:31:16.915Z,61.49
2018-09-03T10:33:45.559Z,61.42
2018-09-03T10:36:14.119Z,61.04
2018-09-03T10:38:42.759Z,60.67
2018-09-03T10:41:11.716Z,60.22
2018-09-03T10:43:40.375Z,60.11
2018-09-03T10:46:09.020Z,60.34
2018-09-03T10:48:38.076Z,59.98
2018-09-03T10:51:06.620Z,58.41
2018-09-03T10:53:35.184Z,58.26
2018-09-03T10:56:03.799Z,58.71
2018-09-03T10:58:32.359Z,59.77
2018-09-03T11:01:00.951Z,60.94
2018-09-03T11:03:29.628Z,61.46
2018-09-03T11:05:58.179Z,61.04
2018-09-03T11:08:26.768Z,61.68
2018-09-03T11:10:55.647Z,61.42
2018-09-03T11:13:24.199Z,60.97
2018-09-03T11:15:52.789Z,61.36
2018-09-03T11:18:21.707Z,60.68
2018-09-03T11:20:50.274Z,61.31
2018-09-03T11:23:18.824Z,61.22
2018-09-03T11:25:47.443Z,61.06
2018-09-03T11:28:16.063Z,61.34
2018-09-03T11:30:44.687Z,60.66
2018-09-03T11:33:13.279Z,61.69
2018-09-03T11:35:41.843Z,60.73
2018-09-03T11:38:10.399Z,61.00
2018-09-03T11:40:39.067Z,60.67
2018-09-03T11:43:07.771Z,61.48
2018-09-03T11:45:36.323Z,60.86
2018-09-03T11:48:04.916Z,61.30
2018-09-03T11:50:33.487Z,60.54
2018-09-03T11:53:02.044Z,59.78
2018-09-03T11:55:30.643Z,60.19
2018-09-03T11:57:59.271Z,59.77
2018-09-03T12:00:29.735Z,59.40
2018-09-03T12:02:58.915Z,58.91
2018-09-03T12:05:28.198Z,58.11
2018-09-03T12:07:56.923Z,57.16
2018-09-03T12:10:25.664Z,56.04
2018-09-03T12:12:54.208Z,56.13
2018-09-03T12:15:33.265Z,56.80
2018-09-03T12:18:01.827Z,56.47
2018-09-03T12:20:30.753Z,56.50
2018-09-03T12:22:59.435Z,56.49
2018-09-03T12:25:28.096Z,55.75
2018-09-03T12:27:56.984Z,55.34
2018-09-03T12:30:25.580Z,55.71
2018-09-03T12:32:54.151Z,55.79
2018-09-03T12:35:22.724Z,55.45
2018-09-03T12:37:51.388Z,54.95
2018-09-03T12:42:47.515Z,53.71
2018-09-03T12:45:16.156Z,53.91
2018-09-03T12:47:44.730Z,53.54
2018-09-03T12:50:13.363Z,53.61
2018-09-03T12:52:42.143Z,54.07
2018-09-03T12:55:10.716Z,52.90
2018-09-03T12:57:39.261Z,52.89
2018-09-03T13:00:07.888Z,53.32
2018-09-03T13:02:39.415Z,52.59
2018-09-03T13:05:05.139Z,53.02
2018-09-03T13:07:33.811Z,52.34
2018-09-03T13:10:02.371Z,52.10
2018-09-03T13:12:31.090Z,52.85
2018-09-03T13:14:59.700Z,53.25
2018-09-03T13:17:29.215Z,53.56
2018-09-03T13:19:57.887Z,52.76
2018-09-03T13:22:26.788Z,52.31
2018-09-03T13:24:55.377Z,53.11
2018-09-03T13:27:23.936Z,52.62
2018-09-03T13:29:52.655Z,51.59
2018-09-03T13:32:21.227Z,52.35
2018-09-03T13:34:49.804Z,52.01
2018-09-03T13:37:18.528Z,51.20
2018-09-03T13:39:47.093Z,51.89
2018-09-03T13:42:15.987Z,52.10
2018-09-03T13:44:44.667Z,51.99
2018-09-03T13:47:13.227Z,49.89
2018-09-03T13:49:41.791Z,50.21
2018-09-03T13:52:10.607Z,50.37
2018-09-03T13:54:39.179Z,49.62
2018-09-03T13:57:07.752Z,50.04
2018-09-03T13:59:36.439Z,50.60
2018-09-03T14:02:05.372Z,49.95
2018-09-03T14:04:33.992Z,49.42
2018-09-03T14:07:02.571Z,49.76
2018-09-03T14:09:32.121Z,49.48
2018-09-03T14:12:00.716Z,49.33
2018-09-03T14:14:29.471Z,50.71
2018-09-03T14:16:58.779Z,50.18
2018-09-03T14:19:27.373Z,50.62
2018-09-03T14:21:55.972Z,51.20
2018-09-03T14:24:24.588Z,50.88
2018-09-03T14:26:53.295Z,50.49
2018-09-03T14:29:23.014Z,50.07
2018-09-03T14:31:51.627Z,49.82
2018-09-03T14:34:20.184Z,49.77
2018-09-03T14:36:49.021Z,50.64
2018-09-03T14:39:18.067Z,50.53
2018-09-03T14:41:47.675Z,51.13
2018-09-03T14:44:18.395Z,51.13
2018-09-03T14:46:48.653Z,50.20
2018-09-03T14:49:18.841Z,49.49
2018-09-03T14:51:48.935Z,50.25
2018-09-03T14:54:17.931Z,50.35
2018-09-03T14:56:47.830Z,50.05
2018-09-03T14:59:16.391Z,50.17
2018-09-03T15:01:45.287Z,50.84
2018-09-03T15:04:13.936Z,50.52
2018-09-03T15:06:42.535Z,50.71
2018-09-03T15:09:12.400Z,49.71
2018-09-03T15:11:41.267Z,49.77
2018-09-03T15:14:09.852Z,50.00
2018-09-03T15:16:38.440Z,50.01
2018-09-03T15:19:07.350Z,49.08
2018-09-03T15:21:36.520Z,49.64
2018-09-03T15:24:05.894Z,49.15
2018-09-03T15:26:35.041Z,48.37
2018-09-03T15:29:03.591Z,48.72
2018-09-03T15:31:32.179Z,48.15
2018-09-03T15:34:00.907Z,48.49
2018-09-03T15:36:29.564Z,48.45
2018-09-03T15:38:58.257Z,48.38
2018-09-03T15:41:26.822Z,48.81
2018-09-03T15:43:55.408Z,48.57
2018-09-03T15:46:24.008Z,48.12
2018-09-03T15:48:52.608Z,49.10
2018-09-03T15:51:21.164Z,48.07
2018-09-03T15:53:50.080Z,47.96
2018-09-03T15:56:18.681Z,47.92
2018-09-03T15:58:47.232Z,47.92
2018-09-03T16:01:15.912Z,47.59
2018-09-03T16:03:44.489Z,48.45
2018-09-03T16:06:13.051Z,48.28
2018-09-03T16:08:42.000Z,48.76
2018-09-03T16:11:10.559Z,48.28
2018-09-03T16:13:39.128Z,48.04
2018-09-03T16:16:07.787Z,48.29
2018-09-03T16:18:36.622Z,48.14
2018-09-03T16:21:05.656Z,48.27
2018-09-03T16:23:34.953Z,47.86
2018-09-03T16:26:03.841Z,48.11
2018-09-03T16:28:32.451Z,47.46
2018-09-03T16:31:01.544Z,47.68
2018-09-03T16:33:30.486Z,47.94
2018-09-03T16:35:59.393Z,48.41
2018-09-03T16:38:28.015Z,48.19
2018-09-03T16:40:56.878Z,47.89
2018-09-03T16:43:26.044Z,49.03
2018-09-03T16:45:54.847Z,49.22
2018-09-03T16:48:23.765Z,49.28
2018-09-03T16:50:52.876Z,49.97
2018-09-03T16:53:22.061Z,49.45
2018-09-03T16:55:51.140Z,50.08
2018-09-03T16:58:20.255Z,50.28
2018-09-03T17:00:48.923Z,50.80
2018-09-03T17:03:17.449Z,50.90
2018-09-03T17:05:46.476Z,52.10
2018-09-03T17:08:15.488Z,52.34
2018-09-03T17:10:44.303Z,52.32
2018-09-03T17:13:13.194Z,52.00
2018-09-03T17:15:42.167Z,52.13
2018-09-03T17:18:10.744Z,51.55
2018-09-03T17:20:39.686Z,52.16
2018-09-03T17:23:08.299Z,51.93
2018-09-03T17:25:37.195Z,52.84
2018-09-03T17:28:06.479Z,52.44
2018-09-03T17:30:35.222Z,52.76
2018-09-03T17:33:03.805Z,53.26
2018-09-03T17:35:32.540Z,52.51
2018-09-03T17:38:01.456Z,52.79
2018-09-03T17:40:31.559Z,52.20
2018-09-03T17:43:00.372Z,52.76
2018-09-03T17:45:28.987Z,52.31
2018-09-03T17:47:57.735Z,52.56
2018-09-03T17:50:26.312Z,52.80
2018-09-03T17:52:55.335Z,52.34
2018-09-03T17:55:23.919Z,52.88
2018-09-03T17:57:52.484Z,52.89
2018-09-03T18:00:21.160Z,53.32
2018-09-03T18:02:49.719Z,53.26
2018-09-03T18:05:18.292Z,53.11
2018-09-03T18:07:46.887Z,53.19
2018-09-03T18:10:15.453Z,53.02
2018-09-03T18:12:44.021Z,53.82
2018-09-03T18:15:12.696Z,53.33
2018-09-03T18:17:41.248Z,53.60
2018-09-03T18:20:09.924Z,53.97
2018-09-03T18:22:38.859Z,53.56
2018-09-03T18:25:07.487Z,54.07
2018-09-03T18:27:36.164Z,53.54
2018-09-03T18:30:04.876Z,54.25
2018-09-03T18:32:33.508Z,54.07
2018-09-03T18:35:02.080Z,53.99
2018-09-03T18:37:31.083Z,54.94
2018-09-03T18:39:59.665Z,54.28
2018-09-03T18:42:28.232Z,55.18
2018-09-03T18:44:56.919Z,54.60
2018-09-03T18:47:25.509Z,55.19
2018-09-03T18:49:54.096Z,56.02
2018-09-03T18:52:22.851Z,55.77
2018-09-03T18:54:51.407Z,55.98
2018-09-03T18:57:19.976Z,56.15
2018-09-03T18:59:48.728Z,56.93
2018-09-03T19:02:17.271Z,57.28
2018-09-03T19:04:45.839Z,57.29
2018-09-03T19:07:14.507Z,56.49
2018-09-03T19:09:43.133Z,57.27
2018-09-03T19:12:11.703Z,56.51
2018-09-03T19:14:40.291Z,57.48
2018-09-03T19:17:08.874Z,57.34
2018-09-03T19:19:37.504Z,57.38
2018-09-03T19:22:06.295Z,57.32
2018-09-03T19:24:34.864Z,57.74
2018-09-03T19:27:03.492Z,57.94
2018-09-03T19:29:32.159Z,57.85
2018-09-03T19:32:00.747Z,58.51
2018-09-03T19:34:29.302Z,58.67
2018-09-03T19:36:57.996Z,59.04
2018-09-03T19:39:26.551Z,59.07
2018-09-03T19:41:55.115Z,59.73
2018-09-03T19:44:23.819Z,59.48
2018-09-03T19:46:52.383Z,59.81
2018-09-03T19:49:21.107Z,59.99
2018-09-03T19:51:49.959Z,59.71
2018-09-03T19:54:18.645Z,59.76
2018-09-03T19:56:47.204Z,59.90
2018-09-03T19:59:15.807Z,59.78
2018-09-03T20:01:44.355Z,59.87
2018-09-03T20:04:13.005Z,60.31
2018-09-03T20:06:41.680Z,60.19
2018-09-03T20:09:11.099Z,59.97
2018-09-03T20:11:40.534Z,60.51
2018-09-03T20:14:09.976Z,60.11
2018-09-03T20:16:38.558Z,60.24
2018-09-03T20:19:07.115Z,60.27
2018-09-03T20:21:35.796Z,60.33
2018-09-03T20:24:04.435Z,59.95
2018-09-03T20:26:33.064Z,60.63
2018-09-03T20:29:01.744Z,60.31
2018-09-03T20:31:30.308Z,60.63
2018-09-03T20:33:58.967Z,61.11
2018-09-03T20:36:27.584Z,60.57
2018-09-03T20:38:56.331Z,61.06
2018-09-03T20:41:24.915Z,61.40
2018-09-03T20:43:53.619Z,61.85
2018-09-03T20:46:22.218Z,61.77
2018-09-03T20:48:50.828Z,61.40
2018-09-03T20:51:19.763Z,61.65
2018-09-03T20:53:48.859Z,61.86
2018-09-03T20:56:17.451Z,61.99
2018-09-03T20:58:46.084Z,62.00
2018-09-03T21:01:14.648Z,61.81
2018-09-03T21:03:43.208Z,61.79
2018-09-03T21:06:12.068Z,61.92
2018-09-03T21:08:40.617Z,61.64
2018-09-03T21:11:09.183Z,62.12
2018-09-03T21:13:37.968Z,61.83
2018-09-03T21:16:06.711Z,62.21
2018-09-03T21:18:35.304Z,61.88
2018-09-03T21:21:03.959Z,61.85
2018-09-03T21:23:32.775Z,61.83
2018-09-03T21:26:01.404Z,61.86
2018-09-03T21:28:30.208Z,62.15
2018-09-03T21:30:58.778Z,62.10
2018-09-03T21:33:27.511Z,62.12
2018-09-03T21:35:56.107Z,62.48
2018-09-03T21:38:24.883Z,62.10
2018-09-03T21:40:53.454Z,62.10
2018-09-03T21:43:22.472Z,62.31
2018-09-03T21:45:51.065Z,61.89
2018-09-03T21:48:19.853Z,61.92
2018-09-03T21:50:48.543Z,62.16
2018-09-03T21:53:17.095Z,62.52
2018-09-03T21:55:45.696Z,62.50
2018-09-03T21:58:14.379Z,62.99
2018-09-03T22:00:44.512Z,63.40
2018-09-03T22:03:13.080Z,63.52
2018-09-03T22:05:41.863Z,63.75
2018-09-03T22:08:10.424Z,64.23
2018-09-03T22:10:38.980Z,64.08
2018-09-03T22:13:07.774Z,64.29
2018-09-03T22:15:36.615Z,64.25
2018-09-03T22:18:05.179Z,64.19
2018-09-03T22:20:33.824Z,64.65
2018-09-03T22:23:02.375Z,64.42
2018-09-03T22:25:30.967Z,64.40
2018-09-03T22:27:59.651Z,64.27
2018-09-03T22:30:29.829Z,64.21
2018-09-03T22:32:58.427Z,64.63
2018-09-03T22:35:27.203Z,64.39
2018-09-03T22:37:55.791Z,64.51
2018-09-03T22:40:24.378Z,65.07
2018-09-03T22:42:52.971Z,65.05
2018-09-03T22:45:21.566Z,64.64
2018-09-03T22:47:50.132Z,64.91
2018-09-03T22:50:18.821Z,64.48
2018-09-03T22:52:47.387Z,64.79
2018-09-03T22:55:15.975Z,64.99
2018-09-03T22:57:44.592Z,64.73
2018-09-03T23:00:13.188Z,64.46
2018-09-03T23:02:43.719Z,64.83
2018-09-03T23:05:12.966Z,64.71
2018-09-03T23:07:41.545Z,65.16
2018-09-03T23:10:10.583Z,64.59
2018-09-03T23:12:39.147Z,64.93
2018-09-03T23:15:08.632Z,64.87
2018-09-03T23:17:37.371Z,64.95
2018-09-03T23:20:05.955Z,65.01
2018-09-03T23:22:34.651Z,64.94
2018-09-03T23:25:03.255Z,64.87
2018-09-03T23:27:31.829Z,65.09
2018-09-03T23:30:00.395Z,65.24
2018-09-03T23:32:29.392Z,65.54
2018-09-03T23:34:57.951Z,65.36
2018-09-03T23:37:26.554Z,65.57
2018-09-03T23:39:55.476Z,65.70
2018-09-03T23:42:24.042Z,65.37
2018-09-03T23:44:52.643Z,65.35
2018-09-03T23:47:21.263Z,65.69
2018-09-03T23:49:49.823Z,65.43
2018-09-03T23:52:18.376Z,65.70
2018-09-03T23:54:47.003Z,65.44
2018-09-03T23:57:15.571Z,65.42
2018-09-03T23:59:44.157Z,65.54
